createdAt,value
2018-03-23T00:00:42.029Z,0
2018-03-23T00:01:51.830Z,0
2018-03-23T00:03:01.627Z,0
2018-03-23T00:04:11.429Z,0
2018-03-23T00:05:21.486Z,0
2018-03-23T00:06:31.354Z,0
2018-03-23T00:07:41.163Z,0
2018-03-23T00:08:51.247Z,0
2018-03-23T00:10:01.042Z,0
2018-03-23T00:11:10.842Z,0
2018-03-23T00:12:20.379Z,0
2018-03-23T00:13:30.210Z,0
2018-03-23T00:14:40.270Z,0
2018-03-23T00:15:50.341Z,0
2018-03-23T00:16:59.872Z,0
2018-03-23T00:18:09.670Z,0
2018-03-23T00:19:19.770Z,0
2018-03-23T00:20:29.308Z,0
2018-03-23T00:21:39.365Z,0
2018-03-23T00:22:49.158Z,0
2018-03-23T00:23:59.009Z,0
2018-03-23T00:25:09.135Z,0
2018-03-23T00:26:18.666Z,0
2018-03-23T00:27:28.741Z,0
2018-03-23T00:28:38.819Z,0
2018-03-23T00:29:48.659Z,0
2018-03-23T00:30:58.458Z,0
2018-03-23T00:32:08.242Z,0
2018-03-23T00:33:18.300Z,0
2018-03-23T00:34:28.363Z,0
2018-03-23T00:35:38.474Z,0
2018-03-23T00:36:48.265Z,0
2018-03-23T00:37:58.320Z,0
2018-03-23T00:39:07.873Z,0
2018-03-23T00:40:17.668Z,0
2018-03-23T00:41:27.470Z,0
2018-03-23T00:42:37.258Z,0
2018-03-23T00:43:47.051Z,0
2018-03-23T00:44:56.869Z,0
2018-03-23T00:46:06.933Z,0
2018-03-23T00:47:16.845Z,0
2018-03-23T00:48:26.916Z,0
2018-03-23T00:49:36.459Z,0
2018-03-23T00:50:46.272Z,0
2018-03-23T00:51:56.345Z,0
2018-03-23T00:53:06.404Z,0
2018-03-23T00:54:16.446Z,0
2018-03-23T00:55:26.512Z,0
2018-03-23T00:56:36.312Z,0
2018-03-23T00:57:46.102Z,0
2018-03-23T00:58:55.916Z,0
2018-03-23T01:00:05.988Z,0
2018-03-23T01:01:15.772Z,0
2018-03-23T01:02:25.573Z,0
2018-03-23T01:03:35.374Z,0
2018-03-23T01:04:44.951Z,0
2018-03-23T01:05:54.751Z,0
2018-03-23T01:07:04.537Z,0
2018-03-23T01:08:14.089Z,0
2018-03-23T01:09:23.907Z,0
2018-03-23T01:10:32.964Z,0
2018-03-23T01:11:42.765Z,0
2018-03-23T01:12:52.843Z,0
2018-03-23T01:14:02.638Z,0
2018-03-23T01:15:12.697Z,0
2018-03-23T01:16:22.504Z,0
2018-03-23T01:17:32.555Z,0
2018-03-23T01:18:42.612Z,0
2018-03-23T01:19:52.679Z,0
2018-03-23T01:21:02.468Z,0
2018-03-23T01:22:12.011Z,0
2018-03-23T01:23:22.074Z,0
2018-03-23T01:24:32.137Z,0
2018-03-23T01:25:41.676Z,0
2018-03-23T01:26:51.739Z,0
2018-03-23T01:28:01.845Z,0
2018-03-23T01:29:11.373Z,0
2018-03-23T01:30:20.904Z,0
2018-03-23T01:31:30.426Z,0
2018-03-23T01:32:39.963Z,0
2018-03-23T01:33:49.756Z,0
2018-03-23T01:34:59.537Z,0
2018-03-23T01:36:09.338Z,0
2018-03-23T01:37:19.141Z,0
2018-03-23T01:38:28.922Z,0
2018-03-23T01:39:38.715Z,0
2018-03-23T01:40:48.767Z,0
2018-03-23T01:41:58.828Z,0
2018-03-23T01:43:08.629Z,0
2018-03-23T01:44:18.159Z,0
2018-03-23T01:45:27.966Z,0
2018-03-23T01:46:38.054Z,0
2018-03-23T01:47:47.856Z,0
2018-03-23T01:48:57.396Z,0
2018-03-23T01:50:07.193Z,0
2018-03-23T01:51:17.307Z,0
2018-03-23T01:52:27.370Z,0
2018-03-23T01:53:37.433Z,0
2018-03-23T01:54:47.497Z,0
2018-03-23T01:55:56.765Z,0
2018-03-23T01:57:06.621Z,0
2018-03-23T01:58:16.145Z,0
2018-03-23T01:59:25.944Z,0
2018-03-23T02:00:36.001Z,0
2018-03-23T02:01:46.098Z,0
2018-03-23T02:02:56.153Z,0
2018-03-23T02:04:05.960Z,0
2018-03-23T02:05:16.031Z,0
2018-03-23T02:06:25.574Z,0
2018-03-23T02:07:35.115Z,0
2018-03-23T02:08:44.953Z,0
2018-03-23T02:09:54.746Z,0
2018-03-23T02:11:04.543Z,0
2018-03-23T02:12:14.083Z,0
2018-03-23T02:13:23.614Z,0
2018-03-23T02:14:33.663Z,0
2018-03-23T02:15:43.723Z,0
2018-03-23T02:16:53.513Z,0
2018-03-23T02:18:03.301Z,0
2018-03-23T02:19:13.087Z,0
2018-03-23T02:20:23.204Z,0
2018-03-23T02:21:32.803Z,0
2018-03-23T02:22:42.967Z,0
2018-03-23T02:23:52.485Z,0
2018-03-23T02:25:02.550Z,0
2018-03-23T02:26:12.629Z,0
2018-03-23T02:27:22.690Z,0
2018-03-23T02:28:32.748Z,0
2018-03-23T02:29:42.278Z,0
2018-03-23T02:30:52.355Z,0
2018-03-23T02:32:01.900Z,0
2018-03-23T02:33:11.979Z,0
2018-03-23T02:34:22.059Z,0
2018-03-23T02:35:32.167Z,0
2018-03-23T02:36:41.695Z,0
2018-03-23T02:37:51.778Z,0
2018-03-23T02:39:01.846Z,0
2018-03-23T02:40:11.657Z,0
2018-03-23T02:41:21.220Z,0
2018-03-23T02:42:31.064Z,0
2018-03-23T02:43:41.201Z,0
2018-03-23T02:44:50.997Z,0
2018-03-23T02:46:01.067Z,0
2018-03-23T02:47:10.901Z,0
2018-03-23T02:48:20.990Z,0
2018-03-23T02:49:30.784Z,0
2018-03-23T02:50:40.594Z,0
2018-03-23T02:51:50.662Z,0
2018-03-23T02:53:00.759Z,0
2018-03-23T02:54:10.577Z,0
2018-03-23T02:55:20.377Z,0
2018-03-23T02:56:29.388Z,0
2018-03-23T02:57:39.213Z,0
2018-03-23T02:58:49.026Z,0
2018-03-23T02:59:59.106Z,0
2018-03-23T03:01:08.964Z,0
2018-03-23T03:02:19.017Z,0
2018-03-23T03:03:29.082Z,0
2018-03-23T03:04:39.143Z,0
2018-03-23T03:05:48.946Z,0
2018-03-23T03:06:58.742Z,0
2018-03-23T03:38:33.320Z,0
2018-03-23T03:39:43.378Z,0
2018-03-23T03:40:53.428Z,0
2018-03-23T03:42:03.227Z,0
2018-03-23T03:43:13.008Z,0
2018-03-23T03:44:23.170Z,0
2018-03-23T03:45:32.997Z,0
2018-03-23T03:46:43.039Z,0
2018-03-23T03:47:53.105Z,0
2018-03-23T03:49:03.155Z,0
2018-03-23T03:50:13.214Z,0
2018-03-23T03:51:22.998Z,0
2018-03-23T03:52:33.034Z,0
2018-03-23T03:53:42.859Z,0
2018-03-23T03:54:52.661Z,0
2018-03-23T03:56:02.497Z,0
2018-03-23T03:57:12.545Z,0
2018-03-23T03:58:22.607Z,0
2018-03-23T03:59:32.698Z,0
2018-03-23T04:00:42.776Z,0
2018-03-23T04:01:52.896Z,0
2018-03-23T04:03:02.964Z,0
2018-03-23T04:04:13.025Z,0
2018-03-23T04:05:23.096Z,0
2018-03-23T04:06:32.894Z,0
2018-03-23T04:07:42.958Z,0
2018-03-23T04:08:52.753Z,0
2018-03-23T04:10:02.836Z,0
2018-03-23T04:11:12.903Z,0
2018-03-23T04:12:22.945Z,0
2018-03-23T04:13:33.099Z,0
2018-03-23T04:14:42.907Z,0
2018-03-23T04:15:52.997Z,0
2018-03-23T04:17:03.086Z,0
2018-03-23T04:18:12.890Z,0
2018-03-23T04:19:22.950Z,0
2018-03-23T04:20:32.757Z,0
2018-03-23T04:21:42.810Z,0
2018-03-23T04:22:52.877Z,0
2018-03-23T04:24:02.671Z,0
2018-03-23T04:25:11.996Z,0
2018-03-23T04:26:22.052Z,0
2018-03-23T04:27:31.861Z,0
2018-03-23T04:28:41.663Z,0
2018-03-23T04:29:51.202Z,0
2018-03-23T04:31:01.316Z,4
2018-03-23T04:32:11.113Z,4
2018-03-23T04:33:21.172Z,4
2018-03-23T04:34:31.256Z,0
2018-03-23T04:35:41.330Z,0
2018-03-23T04:36:51.444Z,4
2018-03-23T04:38:01.231Z,4
2018-03-23T04:39:11.289Z,4
2018-03-23T04:40:21.359Z,4
2018-03-23T04:41:31.168Z,8
2018-03-23T04:42:41.220Z,8
2018-03-23T04:43:51.269Z,8
2018-03-23T04:45:01.055Z,8
2018-03-23T04:46:11.105Z,12
2018-03-23T04:47:21.169Z,12
2018-03-23T04:48:30.710Z,12
2018-03-23T04:49:40.514Z,12
2018-03-23T04:50:50.562Z,16
2018-03-23T04:52:00.627Z,16
2018-03-23T04:53:10.671Z,16
2018-03-23T04:54:20.528Z,24
2018-03-23T04:55:30.324Z,24
2018-03-23T04:56:40.234Z,24
2018-03-23T04:57:50.244Z,24
2018-03-23T04:59:00.040Z,32
2018-03-23T05:00:09.565Z,32
2018-03-23T05:01:19.120Z,36
2018-03-23T05:02:29.199Z,36
2018-03-23T05:03:39.270Z,40
2018-03-23T05:04:48.815Z,40
2018-03-23T05:05:58.931Z,40
2018-03-23T05:07:08.996Z,44
2018-03-23T05:08:18.788Z,44
2018-03-23T05:09:28.585Z,48
2018-03-23T05:10:38.641Z,56
2018-03-23T05:11:48.442Z,60
2018-03-23T05:12:58.251Z,64
2018-03-23T05:14:07.797Z,68
2018-03-23T05:15:17.353Z,76
2018-03-23T05:16:27.660Z,80
2018-03-23T05:17:37.182Z,92
2018-03-23T05:18:47.236Z,108
2018-03-23T05:19:57.041Z,120
2018-03-23T05:21:06.840Z,136
2018-03-23T05:22:16.643Z,144
2018-03-23T05:23:26.436Z,156
2018-03-23T05:24:36.483Z,168
2018-03-23T05:25:46.276Z,184
2018-03-23T05:26:56.075Z,204
2018-03-23T05:28:06.128Z,220
2018-03-23T05:29:16.191Z,228
2018-03-23T05:30:26.000Z,236
2018-03-23T05:31:36.109Z,244
2018-03-23T05:32:46.189Z,260
2018-03-23T05:33:56.239Z,280
2018-03-23T05:35:06.348Z,292
2018-03-23T05:36:16.420Z,316
2018-03-23T05:37:26.221Z,340
2018-03-23T05:38:35.770Z,360
2018-03-23T05:39:45.578Z,376
2018-03-23T05:40:55.161Z,396
2018-03-23T05:42:04.962Z,404
2018-03-23T05:43:14.742Z,412
2018-03-23T05:44:24.552Z,412
2018-03-23T05:45:33.811Z,412
2018-03-23T05:46:43.920Z,416
2018-03-23T05:47:53.989Z,416
2018-03-23T05:49:03.787Z,424
2018-03-23T05:50:13.846Z,440
2018-03-23T05:51:23.916Z,436
2018-03-23T05:52:33.443Z,428
2018-03-23T05:53:42.996Z,436
2018-03-23T05:54:53.038Z,436
2018-03-23T05:56:02.841Z,420
2018-03-23T05:57:12.635Z,416
2018-03-23T05:58:22.423Z,424
2018-03-23T05:59:32.485Z,428
2018-03-23T06:00:42.542Z,416
2018-03-23T06:01:52.604Z,400
2018-03-23T06:03:02.656Z,412
2018-03-23T06:04:12.203Z,416
2018-03-23T06:05:21.983Z,416
2018-03-23T06:06:31.787Z,428
2018-03-23T06:07:41.429Z,448
2018-03-23T06:08:51.484Z,464
2018-03-23T06:10:01.602Z,472
2018-03-23T06:11:11.138Z,492
2018-03-23T06:12:21.195Z,508
2018-03-23T06:13:30.995Z,512
2018-03-23T06:14:41.059Z,532
2018-03-23T06:15:50.863Z,556
2018-03-23T06:17:00.936Z,568
2018-03-23T06:18:10.744Z,576
2018-03-23T06:19:20.814Z,592
2018-03-23T06:20:30.401Z,596
2018-03-23T06:21:40.219Z,608
2018-03-23T06:22:50.314Z,648
2018-03-23T06:24:00.397Z,668
2018-03-23T06:25:10.452Z,668
2018-03-23T06:26:20.521Z,668
2018-03-23T06:27:30.092Z,692
2018-03-23T06:28:40.154Z,708
2018-03-23T06:29:50.206Z,712
2018-03-23T06:30:59.993Z,740
2018-03-23T06:32:09.804Z,768
2018-03-23T06:33:19.921Z,752
2018-03-23T06:34:29.191Z,780
2018-03-23T06:35:39.249Z,808
2018-03-23T06:36:49.035Z,832
2018-03-23T06:37:59.090Z,856
2018-03-23T06:39:08.894Z,884
2018-03-23T06:40:18.691Z,856
2018-03-23T06:41:28.663Z,860
2018-03-23T06:42:38.499Z,836
2018-03-23T06:43:48.045Z,796
2018-03-23T06:44:57.841Z,756
2018-03-23T06:46:07.923Z,760
2018-03-23T06:47:17.789Z,756
2018-03-23T06:48:27.059Z,776
2018-03-23T06:49:37.182Z,808
2018-03-23T06:50:47.298Z,852
2018-03-23T06:51:57.090Z,936
2018-03-23T06:53:07.155Z,948
2018-03-23T06:54:16.684Z,924
2018-03-23T06:55:26.742Z,984
2018-03-23T06:56:36.810Z,1032
2018-03-23T06:57:46.604Z,968
2018-03-23T06:58:56.125Z,912
2018-03-23T07:00:06.176Z,980
2018-03-23T07:01:16.222Z,1032
2018-03-23T07:02:26.030Z,1036
2018-03-23T07:03:35.296Z,1036
2018-03-23T07:04:45.356Z,1104
2018-03-23T07:05:55.164Z,1196
2018-03-23T07:07:04.981Z,1264
2018-03-23T07:08:14.813Z,1300
2018-03-23T07:09:24.607Z,1360
2018-03-23T07:10:34.406Z,1384
2018-03-23T07:11:44.450Z,1392
2018-03-23T07:12:54.241Z,1384
2018-03-23T07:14:04.297Z,1388
2018-03-23T07:15:14.098Z,1404
2018-03-23T07:16:23.676Z,1448
2018-03-23T07:17:33.549Z,1476
2018-03-23T07:18:43.617Z,1492
2018-03-23T07:19:53.683Z,1516
2018-03-23T07:21:03.758Z,1536
2018-03-23T07:22:13.822Z,1572
2018-03-23T07:23:23.630Z,1600
2018-03-23T07:24:33.712Z,1620
2018-03-23T07:25:43.531Z,1636
2018-03-23T07:26:53.351Z,1652
2018-03-23T07:28:03.152Z,1668
2018-03-23T07:29:12.945Z,1680
2018-03-23T07:30:22.475Z,1676
2018-03-23T07:31:32.267Z,1664
2018-03-23T07:32:42.069Z,1664
2018-03-23T07:33:52.118Z,1668
2018-03-23T07:35:02.186Z,1688
2018-03-23T07:36:12.250Z,1716
2018-03-23T07:37:21.517Z,1716
2018-03-23T07:38:31.573Z,1700
2018-03-23T07:39:41.122Z,1692
2018-03-23T07:40:50.941Z,1700
2018-03-23T07:42:00.478Z,1696
2018-03-23T07:43:09.741Z,1680
2018-03-23T07:44:19.006Z,1660
2018-03-23T07:45:29.081Z,1656
2018-03-23T07:46:39.153Z,1660
2018-03-23T07:47:48.730Z,1656
2018-03-23T07:48:58.787Z,1648
2018-03-23T07:50:08.586Z,1628
2018-03-23T07:51:18.661Z,1608
2018-03-23T07:52:28.465Z,1632
2018-03-23T07:53:38.542Z,1684
2018-03-23T07:54:48.729Z,1744
2018-03-23T07:55:58.257Z,1828
2018-03-23T07:57:08.335Z,1900
2018-03-23T07:58:18.404Z,1916
2018-03-23T07:59:28.200Z,1876
2018-03-23T08:00:37.759Z,1836
2018-03-23T08:01:47.833Z,1852
2018-03-23T08:02:57.920Z,1844
2018-03-23T08:04:07.992Z,1852
2018-03-23T08:05:18.084Z,1920
2018-03-23T08:06:28.151Z,1980
2018-03-23T08:07:38.209Z,2044
2018-03-23T08:08:48.262Z,2052
2018-03-23T08:09:58.322Z,2032
2018-03-23T08:11:08.402Z,2064
2018-03-23T08:12:18.469Z,2060
2018-03-23T08:13:28.532Z,1984
2018-03-23T08:14:38.648Z,1924
2018-03-23T08:15:48.501Z,1924
2018-03-23T08:16:58.547Z,1928
2018-03-23T08:18:08.604Z,1968
2018-03-23T08:19:18.413Z,2012
2018-03-23T08:20:28.485Z,2156
2018-03-23T08:21:38.287Z,2424
2018-03-23T08:22:48.142Z,2564
2018-03-23T08:23:58.200Z,2612
2018-03-23T08:25:08.268Z,2712
2018-03-23T08:26:18.344Z,2820
2018-03-23T08:27:28.129Z,2880
2018-03-23T08:28:38.187Z,2936
2018-03-23T08:29:48.301Z,2944
2018-03-23T08:30:58.381Z,2920
2018-03-23T08:32:08.452Z,2880
2018-03-23T08:33:18.518Z,2928
2018-03-23T08:34:28.592Z,2984
2018-03-23T08:35:38.136Z,2944
2018-03-23T08:36:48.205Z,3068
2018-03-23T08:37:58.007Z,3204
2018-03-23T08:39:08.094Z,3268
2018-03-23T08:40:18.171Z,3344
2018-03-23T08:41:28.237Z,3328
2018-03-23T08:42:38.292Z,3288
2018-03-23T08:43:47.822Z,3256
2018-03-23T08:44:57.968Z,3180
2018-03-23T08:46:07.761Z,3292
2018-03-23T08:47:17.308Z,3376
2018-03-23T08:48:27.362Z,3436
2018-03-23T08:49:36.923Z,3452
2018-03-23T08:50:47.036Z,3496
2018-03-23T08:51:57.109Z,3624
2018-03-23T08:53:06.906Z,3744
2018-03-23T08:54:16.486Z,3796
2018-03-23T08:55:26.277Z,3780
2018-03-23T08:56:36.321Z,3724
2018-03-23T08:57:46.379Z,3856
2018-03-23T08:58:56.450Z,4072
2018-03-23T09:00:06.287Z,4128
2018-03-23T09:01:16.092Z,4168
2018-03-23T09:02:25.887Z,4172
2018-03-23T09:03:35.959Z,4164
2018-03-23T09:04:45.605Z,4192
2018-03-23T09:05:55.675Z,4240
2018-03-23T09:07:05.777Z,4272
2018-03-23T09:08:15.596Z,4340
2018-03-23T09:09:25.186Z,4428
2018-03-23T09:10:34.999Z,4508
2018-03-23T09:11:44.815Z,4656
2018-03-23T09:12:54.616Z,4820
2018-03-23T09:14:04.414Z,4952
2018-03-23T09:15:14.222Z,5052
2018-03-23T09:16:23.784Z,5136
2018-03-23T09:17:33.314Z,5320
2018-03-23T09:18:43.415Z,5572
2018-03-23T09:19:53.484Z,5776
2018-03-23T09:21:03.577Z,5956
2018-03-23T09:22:13.415Z,6176
2018-03-23T09:23:23.482Z,6416
2018-03-23T09:24:33.577Z,6472
2018-03-23T09:25:43.375Z,6360
2018-03-23T09:26:53.192Z,6280
2018-03-23T09:28:02.466Z,6240
2018-03-23T09:29:12.294Z,6140
2018-03-23T09:30:22.368Z,6216
2018-03-23T09:31:32.191Z,6232
2018-03-23T09:32:42.248Z,6212
2018-03-23T09:33:52.078Z,6148
2018-03-23T09:35:01.875Z,6072
2018-03-23T09:36:11.406Z,6084
2018-03-23T09:37:21.073Z,6132
2018-03-23T09:38:30.857Z,6240
2018-03-23T09:39:40.713Z,6336
2018-03-23T09:40:50.250Z,6500
2018-03-23T09:42:00.308Z,6764
2018-03-23T09:43:10.127Z,7088
2018-03-23T09:44:19.939Z,7312
2018-03-23T09:45:30.062Z,7568
2018-03-23T09:46:39.876Z,8292
2018-03-23T09:47:49.959Z,7356
2018-03-23T09:49:00.070Z,7120
2018-03-23T09:50:10.170Z,7012
2018-03-23T09:51:19.514Z,6996
2018-03-23T09:52:29.051Z,6924
2018-03-23T09:53:38.597Z,6924
2018-03-23T09:54:48.668Z,7020
2018-03-23T09:55:58.742Z,6896
2018-03-23T09:57:08.598Z,7148
2018-03-23T09:58:18.737Z,6900
2018-03-23T09:59:28.548Z,6776
2018-03-23T10:00:38.359Z,6888
2018-03-23T10:01:48.427Z,7204
2018-03-23T10:02:58.279Z,7216
2018-03-23T10:04:08.654Z,7600
2018-03-23T10:05:18.497Z,7440
2018-03-23T10:06:28.031Z,7356
2018-03-23T10:07:37.590Z,7760
2018-03-23T10:08:47.726Z,8488
2018-03-23T10:09:57.378Z,7772
2018-03-23T10:11:06.953Z,7368
2018-03-23T10:12:17.096Z,7132
2018-03-23T10:13:26.964Z,7008
2018-03-23T10:14:37.117Z,6860
2018-03-23T10:15:46.933Z,6616
2018-03-23T10:16:57.039Z,6572
2018-03-23T10:18:07.152Z,6592
2018-03-23T10:19:16.980Z,6612
2018-03-23T10:20:26.850Z,6656
2018-03-23T10:21:36.723Z,6796
2018-03-23T10:22:46.622Z,6960
2018-03-23T10:23:56.434Z,7076
2018-03-23T10:25:06.494Z,7124
2018-03-23T10:26:16.354Z,7176
2018-03-23T10:27:26.194Z,7152
2018-03-23T10:28:36.282Z,7192
2018-03-23T10:29:46.431Z,7180
2018-03-23T10:30:56.535Z,7204
2018-03-23T10:32:06.684Z,7168
2018-03-23T10:33:16.498Z,7196
2018-03-23T10:34:26.033Z,7168
2018-03-23T10:35:36.258Z,7048
2018-03-23T10:36:46.066Z,6892
2018-03-23T10:37:56.205Z,6784
2018-03-23T10:39:06.316Z,6772
2018-03-23T10:40:16.179Z,6932
2018-03-23T10:41:25.982Z,7024
2018-03-23T10:42:36.035Z,7168
2018-03-23T10:43:46.118Z,7120
2018-03-23T10:44:56.172Z,7316
2018-03-23T10:46:06.251Z,7456
2018-03-23T10:47:16.304Z,7600
2018-03-23T10:48:26.126Z,7620
2018-03-23T10:49:35.402Z,7732
2018-03-23T10:50:44.959Z,7576
2018-03-23T10:51:55.061Z,7524
2018-03-23T10:53:05.153Z,7596
2018-03-23T10:54:15.274Z,7620
2018-03-23T10:55:25.355Z,7744
2018-03-23T10:56:35.428Z,7700
2018-03-23T10:57:45.247Z,7576
2018-03-23T10:58:55.314Z,7192
2018-03-23T11:00:05.395Z,6900
2018-03-23T11:01:15.510Z,6752
2018-03-23T11:02:25.322Z,6584
2018-03-23T11:03:35.184Z,6704
2018-03-23T11:04:44.995Z,7008
2018-03-23T11:05:54.805Z,7108
2018-03-23T11:07:04.600Z,6984
2018-03-23T11:08:14.676Z,6816
2018-03-23T11:09:24.209Z,6616
2018-03-23T11:10:34.294Z,6396
2018-03-23T11:11:44.086Z,6284
2018-03-23T11:12:55.316Z,6232
2018-03-23T11:14:04.888Z,6276
2018-03-23T11:15:14.658Z,6572
2018-03-23T11:16:24.256Z,6700
2018-03-23T11:17:34.441Z,6684
2018-03-23T11:18:44.601Z,6560
2018-03-23T11:19:54.770Z,6684
2018-03-23T11:21:04.907Z,6908
2018-03-23T11:22:14.533Z,6908
2018-03-23T11:23:24.371Z,6804
2018-03-23T11:24:34.730Z,6520
2018-03-23T11:25:44.856Z,6232
2018-03-23T11:26:54.808Z,5992
2018-03-23T11:28:04.381Z,5880
2018-03-23T11:29:14.117Z,5968
2018-03-23T11:30:24.358Z,6204
2018-03-23T11:31:34.667Z,6284
2018-03-23T11:32:44.889Z,6436
2018-03-23T11:33:55.009Z,6668
2018-03-23T11:35:04.585Z,6764
2018-03-23T11:36:14.746Z,6844
2018-03-23T11:37:24.864Z,6668
2018-03-23T11:38:34.956Z,6472
2018-03-23T11:39:45.053Z,6560
2018-03-23T11:40:55.788Z,6736
2018-03-23T11:42:06.052Z,6812
2018-03-23T11:43:16.247Z,6880
2018-03-23T11:44:26.732Z,6852
2018-03-23T11:45:36.900Z,6856
2018-03-23T11:46:47.013Z,6924
2018-03-23T11:47:57.180Z,6912
2018-03-23T11:49:06.806Z,6988
2018-03-23T11:50:16.919Z,7132
2018-03-23T11:51:27.100Z,7292
2018-03-23T11:52:36.957Z,7312
2018-03-23T11:53:47.116Z,7280
2018-03-23T11:54:57.173Z,7236
2018-03-23T11:56:07.266Z,7296
2018-03-23T11:57:17.109Z,7520
2018-03-23T11:58:27.192Z,7628
2018-03-23T11:59:37.243Z,7508
2018-03-23T12:00:47.084Z,7324
2018-03-23T12:01:57.172Z,7132
2018-03-23T12:03:07.036Z,7096
2018-03-23T12:04:17.109Z,7060
2018-03-23T12:05:27.274Z,7016
2018-03-23T12:06:37.357Z,7088
2018-03-23T12:07:47.172Z,7164
2018-03-23T12:08:57.244Z,6976
2018-03-23T12:10:07.331Z,6676
2018-03-23T12:11:17.435Z,6844
2018-03-23T12:12:27.541Z,6784
2018-03-23T12:13:37.620Z,6816
2018-03-23T12:14:47.697Z,6752
2018-03-23T12:15:56.997Z,6592
2018-03-23T12:17:07.168Z,6656
2018-03-23T12:18:17.249Z,6524
2018-03-23T12:19:27.332Z,6508
2018-03-23T12:20:37.408Z,6368
2018-03-23T12:21:47.501Z,6256
2018-03-23T12:22:57.584Z,6192
2018-03-23T12:24:07.677Z,6208
2018-03-23T12:25:17.762Z,6096
2018-03-23T12:26:27.602Z,5920
2018-03-23T12:27:37.450Z,5736
2018-03-23T12:28:47.335Z,5420
2018-03-23T12:29:57.445Z,5288
2018-03-23T12:31:07.517Z,5288
2018-03-23T12:32:17.645Z,5380
2018-03-23T12:33:27.728Z,5444
2018-03-23T12:34:37.820Z,5472
2018-03-23T12:35:47.907Z,5320
2018-03-23T12:36:57.730Z,5224
2018-03-23T12:38:08.051Z,5272
2018-03-23T12:39:18.184Z,5392
2018-03-23T12:40:28.311Z,5480
2018-03-23T12:41:38.136Z,5476
2018-03-23T12:42:48.219Z,5372
2018-03-23T12:43:58.281Z,5132
2018-03-23T12:45:08.086Z,4728
2018-03-23T12:46:18.195Z,4264
2018-03-23T12:47:28.264Z,3960
2018-03-23T12:48:38.353Z,3992
2018-03-23T12:49:48.468Z,4132
2018-03-23T12:50:58.177Z,4176
2018-03-23T12:52:08.035Z,4132
2018-03-23T12:53:18.118Z,4108
2018-03-23T12:54:28.210Z,4156
2018-03-23T12:55:38.291Z,4360
2018-03-23T12:56:48.361Z,4620
2018-03-23T12:57:58.910Z,4780
2018-03-23T12:59:09.081Z,4836
2018-03-23T13:00:19.207Z,4824
2018-03-23T13:01:29.300Z,4788
2018-03-23T13:02:39.457Z,4792
2018-03-23T13:03:49.352Z,4832
2018-03-23T13:04:59.476Z,4892
2018-03-23T13:06:09.073Z,4876
2018-03-23T13:07:19.176Z,4812
2018-03-23T13:08:29.270Z,4732
2018-03-23T13:09:39.478Z,4692
2018-03-23T13:10:49.315Z,4624
2018-03-23T13:11:59.442Z,4512
2018-03-23T13:13:09.527Z,4340
2018-03-23T13:16:59.786Z,3332
2018-03-23T13:18:09.908Z,2912
2018-03-23T13:19:19.993Z,2548
2018-03-23T13:20:30.076Z,2248
2018-03-23T13:21:40.167Z,2044
2018-03-23T13:22:50.635Z,1912
2018-03-23T13:24:00.765Z,1832
2018-03-23T13:25:10.899Z,1792
2018-03-23T13:26:20.286Z,1756
2018-03-23T13:27:29.969Z,1744
2018-03-23T13:28:40.183Z,1792
2018-03-23T13:29:50.059Z,1868
2018-03-23T13:30:59.352Z,1912
2018-03-23T13:32:08.920Z,1892
2018-03-23T13:33:19.004Z,1828
2018-03-23T13:34:29.136Z,1720
2018-03-23T13:35:39.213Z,1640
2018-03-23T13:36:49.292Z,1596
2018-03-23T13:37:59.396Z,1528
2018-03-23T13:39:09.497Z,1436
2018-03-23T13:40:19.374Z,1356
2018-03-23T13:41:29.193Z,1280
2018-03-23T13:42:39.543Z,1208
2018-03-23T13:43:49.602Z,1148
2018-03-23T13:44:59.674Z,1092
2018-03-23T13:46:09.777Z,1028
2018-03-23T13:47:19.603Z,972
2018-03-23T13:48:29.415Z,904
2018-03-23T13:49:39.222Z,848
2018-03-23T13:50:48.787Z,800
2018-03-23T13:51:58.911Z,760
2018-03-23T13:53:08.715Z,724
2018-03-23T13:54:18.810Z,692
2018-03-23T13:55:28.377Z,660
2018-03-23T13:56:38.168Z,632
2018-03-23T13:57:48.252Z,604
2018-03-23T13:58:58.321Z,580
2018-03-23T14:00:08.438Z,568
2018-03-23T14:01:18.528Z,564
2018-03-23T14:02:28.390Z,568
2018-03-23T14:03:38.228Z,568
2018-03-23T14:04:48.337Z,536
2018-03-23T14:05:58.137Z,492
2018-03-23T14:07:08.206Z,488
2018-03-23T14:08:17.776Z,528
2018-03-23T14:09:27.696Z,600
2018-03-23T14:10:37.749Z,644
2018-03-23T14:11:47.864Z,664
2018-03-23T14:12:57.930Z,700
2018-03-23T14:14:08.052Z,776
2018-03-23T14:15:18.187Z,860
2018-03-23T14:16:28.292Z,912
2018-03-23T14:17:37.881Z,964
2018-03-23T14:18:47.752Z,1000
2018-03-23T14:19:57.818Z,1024
2018-03-23T14:21:07.447Z,1044
2018-03-23T14:22:17.552Z,1056
2018-03-23T14:23:27.502Z,1068
2018-03-23T14:24:37.059Z,1072
2018-03-23T14:25:47.169Z,1040
2018-03-23T14:26:57.248Z,992
2018-03-23T14:28:07.075Z,944
2018-03-23T14:29:16.873Z,924
2018-03-23T14:30:26.748Z,924
2018-03-23T14:31:36.570Z,964
2018-03-23T14:32:46.897Z,1004
2018-03-23T14:33:57.086Z,1056
2018-03-23T14:35:07.192Z,1100
2018-03-23T14:36:16.752Z,1136
2018-03-23T14:37:26.839Z,1204
2018-03-23T14:38:36.404Z,1264
2018-03-23T14:39:46.501Z,1308
2018-03-23T14:40:56.555Z,1344
2018-03-23T14:42:06.366Z,1364
2018-03-23T14:43:15.915Z,1372
2018-03-23T14:44:25.474Z,1368
2018-03-23T14:45:35.482Z,1376
2018-03-23T14:46:45.824Z,1376
2018-03-23T14:47:55.903Z,1380
2018-03-23T14:49:05.756Z,1384
2018-03-23T14:50:15.581Z,1388
2018-03-23T14:51:25.487Z,1396
2018-03-23T14:52:35.608Z,1408
2018-03-23T14:53:45.225Z,1424
2018-03-23T14:54:55.338Z,1432
2018-03-23T14:56:04.642Z,1460
2018-03-23T14:57:14.203Z,1496
2018-03-23T14:58:24.071Z,1532
2018-03-23T14:59:34.187Z,1564
2018-03-23T15:00:43.760Z,1596
2018-03-23T15:01:53.862Z,1624
2018-03-23T15:03:03.733Z,1644
2018-03-23T15:04:13.837Z,1648
2018-03-23T15:05:24.012Z,1636
2018-03-23T15:06:33.893Z,1612
2018-03-23T15:07:43.955Z,1572
2018-03-23T15:08:53.782Z,1524
2018-03-23T15:10:03.880Z,1488
2018-03-23T15:11:13.980Z,1460
2018-03-23T15:12:24.060Z,1432
2018-03-23T15:13:34.142Z,1420
2018-03-23T15:14:44.304Z,1408
2018-03-23T15:15:54.366Z,1400
2018-03-23T15:17:04.180Z,1392
2018-03-23T15:18:14.016Z,1380
2018-03-23T15:19:24.083Z,1372
2018-03-23T15:20:34.172Z,1352
2018-03-23T15:21:44.368Z,1332
2018-03-23T15:22:54.534Z,1300
2018-03-23T15:24:04.600Z,1272
2018-03-23T15:25:14.431Z,1244
2018-03-23T15:26:24.554Z,1216
2018-03-23T15:27:34.106Z,1192
2018-03-23T15:28:44.191Z,1168
2018-03-23T15:29:54.275Z,1148
2018-03-23T15:31:04.337Z,1124
2018-03-23T15:32:13.932Z,1096
2018-03-23T15:33:23.497Z,1076
2018-03-23T15:34:33.301Z,1060
2018-03-23T15:35:43.442Z,1040
2018-03-23T15:36:53.269Z,1028
2018-03-23T15:38:02.875Z,1016
2018-03-23T15:39:12.705Z,1004
2018-03-23T15:40:22.779Z,992
2018-03-23T15:41:32.314Z,976
2018-03-23T15:42:42.390Z,956
2018-03-23T15:43:52.543Z,936
2018-03-23T15:45:02.104Z,912
2018-03-23T15:46:11.639Z,884
2018-03-23T15:47:21.450Z,864
2018-03-23T15:48:31.276Z,844
2018-03-23T15:49:41.428Z,824
2018-03-23T15:50:51.506Z,800
2018-03-23T15:52:01.595Z,784
2018-03-23T15:53:11.428Z,772
2018-03-23T15:54:21.235Z,756
2018-03-23T15:55:31.326Z,728
2018-03-23T15:56:41.112Z,712
2018-03-23T15:57:50.646Z,704
2018-03-23T15:59:00.462Z,692
2018-03-23T16:00:10.550Z,676
2018-03-23T16:01:20.185Z,660
2018-03-23T16:02:29.989Z,636
2018-03-23T16:03:39.805Z,604
2018-03-23T16:04:50.326Z,584
2018-03-23T16:06:00.432Z,556
2018-03-23T16:07:10.276Z,516
2018-03-23T16:08:19.857Z,480
2018-03-23T16:09:29.698Z,460
2018-03-23T16:10:39.515Z,456
2018-03-23T16:11:49.355Z,456
2018-03-23T16:12:59.153Z,456
2018-03-23T16:14:09.222Z,456
2018-03-23T16:15:19.418Z,452
2018-03-23T16:16:29.228Z,440
2018-03-23T16:17:39.057Z,424
2018-03-23T16:18:48.927Z,392
2018-03-23T16:19:59.051Z,356
2018-03-23T16:21:08.933Z,328
2018-03-23T16:22:18.751Z,316
2018-03-23T16:23:28.558Z,304
2018-03-23T16:24:38.460Z,288
2018-03-23T16:25:48.553Z,272
2018-03-23T16:26:58.358Z,260
2018-03-23T16:28:08.177Z,232
2018-03-23T16:29:17.987Z,208
2018-03-23T16:30:27.801Z,188
2018-03-23T16:31:37.371Z,168
2018-03-23T16:32:47.448Z,160
2018-03-23T16:33:57.515Z,144
2018-03-23T16:35:07.320Z,128
2018-03-23T16:36:17.473Z,120
2018-03-23T16:37:27.810Z,116